Time;durP1;ratioP1;P1;durP2;ratioP2;P2;SDS_P1;SDS_P2;PMS_P1;PMS_P2;Temp;Humidity;BMP_temperature;BMP_pressure;BME280_temperature;BME280_humidity;BME280_pressure;Samples;Min_cycle;Max_cycle;Signal;HPM_P1;HPM_P2
2023/07/09 00:01:44;;;;;;;4.72;3.90;;;;;;;;;;6209871;23;20884;-82
2023/07/09 00:04:11;;;;;;;6.22;4.13;;;;;;;;;;6208901;23;20013;-81
2023/07/09 00:06:37;;;;;;;6.43;4.97;;;;;;;;;;6209207;23;20466;-82
2023/07/09 00:09:04;;;;;;;6.30;4.95;;;;;;;;;;6209121;23;20013;-82
2023/07/09 00:11:31;;;;;;;4.88;4.28;;;;;;;;;;6209636;23;20051;-82
2023/07/09 00:13:56;;;;;;;5.38;4.70;;;;;;;;;;6206695;23;20051;-82
2023/07/09 00:16:24;;;;;;;5.05;4.22;;;;;;;;;;6207548;23;20060;-82
2023/07/09 00:18:50;;;;;;;4.60;3.80;;;;;;;;;;6209282;23;20367;-82
2023/07/09 00:21:17;;;;;;;6.05;4.22;;;;;;;;;;6208942;23;20086;-82
2023/07/09 00:23:43;;;;;;;5.30;4.72;;;;;;;;;;6208385;23;20074;-81
2023/07/09 00:26:10;;;;;;;4.90;4.20;;;;;;;;;;6208330;23;20044;-82
2023/07/09 00:28:36;;;;;;;5.57;4.40;;;;;;;;;;6207330;23;20147;-82
2023/07/09 00:31:03;;;;;;;5.50;4.13;;;;;;;;;;6209675;23;20048;-82
2023/07/09 00:33:31;;;;;;;4.97;3.92;;;;;;;;;;6182765;23;20024;-82
2023/07/09 00:35:57;;;;;;;4.60;4.15;;;;;;;;;;6208281;23;20017;-82
2023/07/09 00:38:24;;;;;;;5.72;5.10;;;;;;;;;;6208414;23;20026;-81
2023/07/09 00:41:04;;;;;;;8.30;4.75;;;;;;;;;;6208760;23;20017;-82
2023/07/09 00:43:35;;;;;;;6.10;4.32;;;;;;;;;;6206658;23;20024;-82
2023/07/09 00:46:19;;;;;;;5.25;4.75;;;;;;;;;;6207102;23;20020;-82
2023/07/09 00:48:59;;;;;;;5.30;4.53;;;;;;;;;;6208439;23;20064;-83
2023/07/09 00:51:26;;;;;;;5.20;4.15;;;;;;;;;;6209020;23;20087;-83
2023/07/09 00:53:54;;;;;;;5.40;4.25;;;;;;;;;;6207419;23;20079;-82
2023/07/09 00:56:32;;;;;;;6.30;4.60;;;;;;;;;;6208339;23;20024;-82
2023/07/09 00:59:01;;;;;;;4.28;3.88;;;;;;;;;;6206059;23;20027;-83
2023/07/09 01:01:27;;;;;;;5.47;4.78;;;;;;;;;;6208504;23;20541;-81
2023/07/09 01:03:57;;;;;;;5.80;4.32;;;;;;;;;;6208962;23;20044;-81
2023/07/09 01:06:46;;;;;;;4.72;4.25;;;;;;;;;;6207057;23;20481;-82
2023/07/09 01:09:12;;;;;;;5.70;3.90;;;;;;;;;;6196500;23;20347;-83
2023/07/09 01:11:39;;;;;;;5.75;4.28;;;;;;;;;;6206808;23;20016;-83
2023/07/09 01:14:06;;;;;;;8.48;4.68;;;;;;;;;;6206818;23;20067;-82
2023/07/09 01:16:34;;;;;;;4.45;3.83;;;;;;;;;;6207444;23;20052;-82
2023/07/09 01:19:00;;;;;;;5.20;3.83;;;;;;;;;;6207252;23;20025;-82
2023/07/09 01:21:27;;;;;;;5.50;4.00;;;;;;;;;;6208421;23;20395;-82
2023/07/09 01:23:54;;;;;;;5.05;4.13;;;;;;;;;;6206908;23;20026;-82
2023/07/09 01:26:24;;;;;;;5.47;4.22;;;;;;;;;;6205616;23;20454;-82
2023/07/09 01:28:51;;;;;;;4.93;4.25;;;;;;;;;;6207248;23;20017;-82
2023/07/09 01:31:17;;;;;;;4.40;4.00;;;;;;;;;;6206644;23;20021;-82
2023/07/09 01:33:44;;;;;;;4.13;3.47;;;;;;;;;;6207371;23;20021;-81
2023/07/09 01:36:13;;;;;;;5.82;3.97;;;;;;;;;;6208396;23;20402;-81
2023/07/09 01:38:39;;;;;;;4.68;4.20;;;;;;;;;;6206889;23;20024;-81
2023/07/09 01:41:05;;;;;;;5.78;4.03;;;;;;;;;;6206060;23;20021;-82
2023/07/09 01:43:32;;;;;;;4.60;4.13;;;;;;;;;;6208594;23;20307;-82
2023/07/09 01:45:58;;;;;;;7.60;4.80;;;;;;;;;;6208488;23;20103;-81
2023/07/09 01:48:25;;;;;;;6.72;4.53;;;;;;;;;;6208082;23;20075;-82
2023/07/09 01:50:51;;;;;;;6.10;4.00;;;;;;;;;;6208167;23;20013;-81
2023/07/09 01:53:20;;;;;;;4.85;4.00;;;;;;;;;;6208224;23;20096;-81
2023/07/09 01:55:46;;;;;;;7.90;3.88;;;;;;;;;;6207172;23;20070;-82
2023/07/09 01:58:12;;;;;;;6.63;4.78;;;;;;;;;;6208343;23;20024;-81
2023/07/09 02:00:41;;;;;;;4.75;3.85;;;;;;;;;;6209233;23;20377;-82
2023/07/09 02:03:07;;;;;;;6.15;3.95;;;;;;;;;;6207930;23;20016;-81
2023/07/09 02:05:33;;;;;;;5.63;4.15;;;;;;;;;;6207603;23;20025;-82
2023/07/09 02:07:59;;;;;;;5.63;4.32;;;;;;;;;;6207983;23;20026;-81
2023/07/09 02:10:25;;;;;;;5.28;3.85;;;;;;;;;;6207580;23;20016;-82
2023/07/09 02:12:51;;;;;;;4.70;4.13;;;;;;;;;;6206525;23;20059;-81
2023/07/09 02:15:17;;;;;;;5.65;4.22;;;;;;;;;;6205869;23;20080;-81
2023/07/09 02:17:44;;;;;;;4.18;3.67;;;;;;;;;;6206557;23;20019;-81
2023/07/09 02:20:10;;;;;;;5.20;4.22;;;;;;;;;;6208248;23;20062;-82
2023/07/09 02:22:37;;;;;;;5.90;4.13;;;;;;;;;;6208079;23;20418;-81
2023/07/09 02:25:04;;;;;;;4.75;4.18;;;;;;;;;;6206374;23;20025;-81
2023/07/09 02:27:30;;;;;;;6.13;4.07;;;;;;;;;;6208922;23;20486;-81
2023/07/09 02:29:56;;;;;;;5.53;4.10;;;;;;;;;;6206083;23;20052;-81
2023/07/09 02:32:23;;;;;;;6.32;3.85;;;;;;;;;;6208170;23;20398;-81
2023/07/09 02:34:52;;;;;;;5.00;4.22;;;;;;;;;;6207300;23;20100;-81
2023/07/09 02:37:19;;;;;;;5.65;4.68;;;;;;;;;;6181608;23;20044;-82
2023/07/09 02:39:45;;;;;;;4.97;4.40;;;;;;;;;;6207716;23;20066;-82
2023/07/09 02:42:11;;;;;;;4.78;4.10;;;;;;;;;;6208606;23;20017;-82
2023/07/09 02:44:38;;;;;;;5.35;4.43;;;;;;;;;;6207508;23;20017;-82
2023/07/09 02:47:04;;;;;;;4.72;4.32;;;;;;;;;;6205220;23;20016;-81
2023/07/09 02:49:30;;;;;;;6.80;4.70;;;;;;;;;;6207213;23;20017;-81
2023/07/09 02:51:56;;;;;;;6.45;4.53;;;;;;;;;;6208141;23;20019;-81
2023/07/09 02:54:22;;;;;;;6.22;4.88;;;;;;;;;;6207734;23;20017;-81
2023/07/09 02:56:48;;;;;;;5.50;4.25;;;;;;;;;;6207553;23;20339;-81
2023/07/09 02:59:14;;;;;;;5.28;4.60;;;;;;;;;;6206403;23;20146;-81
2023/07/09 03:01:40;;;;;;;6.13;4.53;;;;;;;;;;6206413;23;20139;-81
2023/07/09 03:04:08;;;;;;;7.53;4.68;;;;;;;;;;6206959;23;20349;-82
2023/07/09 03:06:36;;;;;;;6.63;4.65;;;;;;;;;;6207925;23;20013;-81
2023/07/09 03:09:03;;;;;;;6.18;4.80;;;;;;;;;;6209187;23;20016;-82
2023/07/09 03:11:30;;;;;;;8.32;4.90;;;;;;;;;;6208577;23;20051;-82
2023/07/09 03:13:57;;;;;;;5.30;4.25;;;;;;;;;;6209835;23;20070;-82
2023/07/09 03:16:23;;;;;;;5.20;4.55;;;;;;;;;;6210152;23;20082;-82
2023/07/09 03:18:49;;;;;;;5.45;4.75;;;;;;;;;;6209970;23;20035;-82
2023/07/09 03:21:15;;;;;;;5.35;4.63;;;;;;;;;;6209985;23;20023;-83
2023/07/09 03:23:41;;;;;;;7.25;4.20;;;;;;;;;;6208751;23;20411;-82
2023/07/09 03:26:07;;;;;;;5.85;4.50;;;;;;;;;;6207807;23;20012;-82
2023/07/09 03:28:33;;;;;;;6.57;4.50;;;;;;;;;;6207187;23;20329;-82
2023/07/09 03:30:59;;;;;;;5.75;4.63;;;;;;;;;;6208862;23;20023;-81
2023/07/09 03:33:25;;;;;;;6.95;4.57;;;;;;;;;;6210105;23;20016;-83
2023/07/09 03:35:52;;;;;;;7.85;4.60;;;;;;;;;;6208468;23;20021;-82
2023/07/09 03:38:18;;;;;;;9.93;4.57;;;;;;;;;;6208140;23;20024;-82
2023/07/09 03:40:44;;;;;;;5.95;5.15;;;;;;;;;;6208341;23;20017;-82
2023/07/09 03:43:10;;;;;;;8.35;4.90;;;;;;;;;;6208141;23;20102;-82
2023/07/09 03:45:38;;;;;;;6.35;4.82;;;;;;;;;;6208089;23;20020;-82
2023/07/09 03:48:05;;;;;;;4.88;4.38;;;;;;;;;;6208527;23;20017;-82
2023/07/09 03:50:31;;;;;;;6.32;4.93;;;;;;;;;;6210531;23;20016;-82
2023/07/09 03:52:57;;;;;;;5.15;4.40;;;;;;;;;;6208477;23;20020;-82
2023/07/09 03:55:26;;;;;;;5.28;4.78;;;;;;;;;;6209390;23;20013;-82
2023/07/09 03:57:52;;;;;;;6.25;4.53;;;;;;;;;;6209823;23;20020;-82
2023/07/09 04:00:18;;;;;;;6.82;5.00;;;;;;;;;;6209514;23;20087;-82
2023/07/09 04:02:44;;;;;;;6.07;4.10;;;;;;;;;;6210210;23;20338;-83
2023/07/09 04:05:11;;;;;;;6.20;4.65;;;;;;;;;;6207188;23;20017;-82
2023/07/09 04:07:37;;;;;;;5.00;4.45;;;;;;;;;;6209338;23;20012;-82
2023/07/09 04:10:04;;;;;;;5.35;4.60;;;;;;;;;;6211832;23;20016;-82
2023/07/09 04:12:30;;;;;;;5.85;4.68;;;;;;;;;;6216588;23;20019;-81
2023/07/09 04:14:56;;;;;;;8.25;4.40;;;;;;;;;;6215965;23;20021;-83
2023/07/09 04:17:23;;;;;;;7.07;4.88;;;;;;;;;;6215623;23;20064;-82
2023/07/09 04:19:49;;;;;;;5.93;4.72;;;;;;;;;;6214427;23;20084;-83
2023/07/09 04:22:15;;;;;;;5.57;4.15;;;;;;;;;;6209500;23;20181;-82
2023/07/09 04:24:41;;;;;;;5.22;4.63;;;;;;;;;;6208075;23;20071;-82
2023/07/09 04:27:07;;;;;;;5.32;4.50;;;;;;;;;;6207869;23;20013;-82
2023/07/09 04:29:38;;;;;;;6.10;5.03;;;;;;;;;;6207098;23;20019;-82
2023/07/09 04:32:04;;;;;;;4.85;4.35;;;;;;;;;;6209260;23;20039;-82
2023/07/09 04:34:30;;;;;;;6.05;4.75;;;;;;;;;;6209149;23;20020;-82
2023/07/09 04:36:56;;;;;;;5.82;4.95;;;;;;;;;;6207314;23;20020;-82
2023/07/09 04:39:22;;;;;;;5.00;4.40;;;;;;;;;;6206414;23;20035;-82
2023/07/09 04:41:48;;;;;;;6.75;5.20;;;;;;;;;;6208079;23;20079;-82
2023/07/09 04:44:14;;;;;;;5.88;4.68;;;;;;;;;;6207076;23;20095;-82
2023/07/09 04:46:40;;;;;;;6.80;5.00;;;;;;;;;;6209255;23;20044;-82
2023/07/09 04:49:07;;;;;;;5.97;4.57;;;;;;;;;;6205476;23;20016;-81
2023/07/09 04:51:33;;;;;;;5.70;5.10;;;;;;;;;;6209698;23;20044;-82
2023/07/09 04:54:03;;;;;;;8.32;4.60;;;;;;;;;;6208838;23;20020;-82
2023/07/09 04:56:30;;;;;;;6.53;4.65;;;;;;;;;;6209262;23;20394;-82
2023/07/09 04:58:56;;;;;;;5.18;4.30;;;;;;;;;;6207835;23;20075;-82
2023/07/09 05:01:22;;;;;;;6.30;4.35;;;;;;;;;;6207306;23;20031;-82
2023/07/09 05:03:48;;;;;;;6.80;4.57;;;;;;;;;;6205685;23;20013;-84
2023/07/09 05:06:15;;;;;;;7.57;5.03;;;;;;;;;;6206711;23;20020;-83
2023/07/09 05:08:42;;;;;;;7.18;4.93;;;;;;;;;;6205198;23;20013;-83
2023/07/09 05:11:10;;;;;;;8.52;4.85;;;;;;;;;;6208033;23;20012;-84
2023/07/09 05:13:36;;;;;;;6.15;4.55;;;;;;;;;;6207066;23;20020;-82
2023/07/09 05:16:03;;;;;;;6.93;5.05;;;;;;;;;;6207702;23;20020;-82
2023/07/09 05:18:29;;;;;;;8.90;5.53;;;;;;;;;;6207791;23;20334;-84
2023/07/09 05:20:55;;;;;;;6.95;4.50;;;;;;;;;;6206007;23;20511;-84
2023/07/09 05:23:22;;;;;;;6.00;5.22;;;;;;;;;;6206596;23;20021;-84
2023/07/09 05:25:48;;;;;;;8.23;5.68;;;;;;;;;;6206229;23;20020;-83
2023/07/09 05:28:14;;;;;;;5.85;5.35;;;;;;;;;;6207444;23;20320;-82
2023/07/09 05:30:42;;;;;;;5.72;4.75;;;;;;;;;;6205922;23;20469;-82
2023/07/09 05:33:08;;;;;;;9.48;5.20;;;;;;;;;;6206183;23;20087;-82
2023/07/09 05:35:34;;;;;;;6.75;5.32;;;;;;;;;;6208649;23;20067;-82
2023/07/09 05:38:00;;;;;;;7.97;5.15;;;;;;;;;;6208193;23;20015;-82
2023/07/09 05:40:26;;;;;;;7.10;5.78;;;;;;;;;;6206669;23;20091;-81
2023/07/09 05:42:52;;;;;;;6.28;5.18;;;;;;;;;;6208314;23;20078;-82
2023/07/09 05:45:18;;;;;;;7.22;5.78;;;;;;;;;;6205922;23;20139;-82
2023/07/09 05:47:44;;;;;;;8.02;5.63;;;;;;;;;;6208322;23;20059;-83
2023/07/09 05:50:10;;;;;;;8.40;6.15;;;;;;;;;;6204431;23;20048;-80
2023/07/09 05:52:36;;;;;;;6.78;5.82;;;;;;;;;;6207573;23;20013;-82
2023/07/09 05:55:02;;;;;;;9.60;6.32;;;;;;;;;;6208078;23;20023;-79
2023/07/09 05:57:28;;;;;;;9.30;6.63;;;;;;;;;;6207318;23;20024;-80
2023/07/09 05:59:54;;;;;;;9.65;7.28;;;;;;;;;;6207810;23;20097;-80
2023/07/09 06:02:21;;;;;;;11.43;6.88;;;;;;;;;;6205944;23;20091;-79
2023/07/09 06:04:49;;;;;;;9.60;6.80;;;;;;;;;;6207206;23;20021;-79
2023/07/09 06:07:15;;;;;;;10.07;6.53;;;;;;;;;;6207046;23;20066;-80
2023/07/09 06:09:41;;;;;;;9.55;6.55;;;;;;;;;;6206723;23;20107;-80
2023/07/09 06:12:07;;;;;;;9.43;7.05;;;;;;;;;;6204152;23;20024;-79
2023/07/09 06:14:33;;;;;;;10.52;6.50;;;;;;;;;;6207228;23;20369;-79
2023/07/09 06:17:00;;;;;;;8.65;6.75;;;;;;;;;;6206683;23;20083;-80
2023/07/09 06:19:26;;;;;;;10.32;7.18;;;;;;;;;;6206776;23;20346;-80
2023/07/09 06:21:52;;;;;;;8.20;6.50;;;;;;;;;;6207859;23;20418;-79
2023/07/09 06:24:18;;;;;;;8.43;6.18;;;;;;;;;;6207652;23;20419;-79
2023/07/09 06:26:44;;;;;;;9.63;7.28;;;;;;;;;;6208877;23;20019;-80
2023/07/09 06:29:10;;;;;;;8.38;6.63;;;;;;;;;;6208478;23;20016;-80
2023/07/09 06:31:37;;;;;;;9.60;7.07;;;;;;;;;;6207331;23;20012;-80
2023/07/09 06:34:03;;;;;;;8.85;6.40;;;;;;;;;;6205466;23;20016;-81
2023/07/09 06:36:29;;;;;;;9.27;6.53;;;;;;;;;;6208347;23;20013;-80
2023/07/09 06:38:56;;;;;;;9.35;6.85;;;;;;;;;;6210224;23;20016;-79
2023/07/09 06:41:23;;;;;;;9.00;6.75;;;;;;;;;;6210269;23;20016;-80
2023/07/09 06:43:49;;;;;;;8.43;7.05;;;;;;;;;;6209774;23;20078;-80
2023/07/09 06:46:15;;;;;;;9.73;6.35;;;;;;;;;;6207161;23;20016;-80
2023/07/09 06:48:41;;;;;;;9.82;6.38;;;;;;;;;;6209223;23;20020;-80
2023/07/09 06:51:07;;;;;;;9.15;5.90;;;;;;;;;;6207996;23;20442;-80
2023/07/09 06:53:34;;;;;;;8.98;6.65;;;;;;;;;;6210616;23;20016;-80
2023/07/09 06:56:00;;;;;;;8.43;6.28;;;;;;;;;;6209537;23;20023;-79
2023/07/09 06:58:31;;;;;;;9.65;6.38;;;;;;;;;;6208105;23;20024;-80
2023/07/09 07:00:57;;;;;;;8.88;7.22;;;;;;;;;;6209175;23;20013;-80
2023/07/09 07:03:24;;;;;;;9.07;6.22;;;;;;;;;;6208164;23;20016;-80
2023/07/09 07:05:53;;;;;;;9.93;6.53;;;;;;;;;;6208219;23;20347;-80
2023/07/09 07:08:20;;;;;;;10.32;6.55;;;;;;;;;;6207713;23;20067;-80
2023/07/09 07:10:48;;;;;;;9.88;7.20;;;;;;;;;;6207081;23;20013;-80
2023/07/09 07:13:14;;;;;;;8.90;6.20;;;;;;;;;;6205561;23;20487;-80
2023/07/09 07:15:40;;;;;;;9.70;6.60;;;;;;;;;;6209525;23;20512;-81
2023/07/09 07:18:07;;;;;;;8.07;6.40;;;;;;;;;;6208078;23;20013;-81
2023/07/09 07:20:33;;;;;;;7.50;6.22;;;;;;;;;;6207832;23;20013;-80
2023/07/09 07:22:59;;;;;;;8.82;6.03;;;;;;;;;;6206283;23;20078;-80
2023/07/09 07:25:26;;;;;;;10.07;6.53;;;;;;;;;;6207372;23;20016;-81
2023/07/09 07:27:53;;;;;;;8.70;6.60;;;;;;;;;;6208502;23;20028;-81
2023/07/09 07:30:19;;;;;;;6.55;5.80;;;;;;;;;;6208102;23;20021;-80
2023/07/09 07:32:46;;;;;;;12.43;6.32;;;;;;;;;;6205678;23;20024;-83
2023/07/09 07:35:13;;;;;;;7.70;6.07;;;;;;;;;;6209357;23;20031;-80
2023/07/09 07:37:39;;;;;;;7.30;6.20;;;;;;;;;;6209098;23;20021;-80
2023/07/09 07:40:06;;;;;;;8.75;6.60;;;;;;;;;;6209592;23;20127;-81
2023/07/09 07:42:32;;;;;;;8.23;6.25;;;;;;;;;;6205818;23;20020;-81
2023/07/09 07:44:58;;;;;;;8.43;6.28;;;;;;;;;;6208120;23;20051;-80
2023/07/09 07:47:24;;;;;;;8.32;5.70;;;;;;;;;;6208382;23;20012;-81
2023/07/09 07:49:50;;;;;;;7.55;5.50;;;;;;;;;;6204216;23;20024;-79
2023/07/09 07:52:16;;;;;;;7.70;6.38;;;;;;;;;;6208487;23;20027;-80
2023/07/09 07:54:42;;;;;;;7.50;6.05;;;;;;;;;;6206816;23;20098;-81
2023/07/09 07:57:09;;;;;;;11.57;7.30;;;;;;;;;;6206091;23;20016;-81
2023/07/09 07:59:35;;;;;;;10.13;6.70;;;;;;;;;;6208816;23;20075;-81
2023/07/09 08:02:02;;;;;;;6.78;5.82;;;;;;;;;;6208488;23;20020;-80
2023/07/09 08:04:28;;;;;;;7.15;5.43;;;;;;;;;;6209005;23;20434;-80
2023/07/09 08:06:54;;;;;;;10.15;5.93;;;;;;;;;;6208838;23;20012;-81
2023/07/09 08:09:20;;;;;;;8.45;6.28;;;;;;;;;;6209436;23;20062;-81
2023/07/09 08:11:46;;;;;;;8.32;5.97;;;;;;;;;;6208444;23;20438;-81
2023/07/09 08:14:12;;;;;;;6.53;5.75;;;;;;;;;;6207483;23;20021;-80
2023/07/09 08:16:38;;;;;;;8.07;4.97;;;;;;;;;;6209043;23;20017;-80
2023/07/09 08:19:05;;;;;;;6.68;5.22;;;;;;;;;;6207756;23;20017;-81
2023/07/09 08:21:31;;;;;;;6.47;5.43;;;;;;;;;;6210325;23;20026;-81
2023/07/09 08:23:57;;;;;;;7.47;5.47;;;;;;;;;;6209177;23;20398;-80
2023/07/09 08:26:24;;;;;;;7.45;5.95;;;;;;;;;;6207906;23;20016;-80
2023/07/09 08:28:50;;;;;;;7.60;4.95;;;;;;;;;;6209497;23;20013;-80
2023/07/09 08:31:16;;;;;;;8.65;5.25;;;;;;;;;;6209214;23;20082;-80
2023/07/09 08:33:42;;;;;;;6.13;5.07;;;;;;;;;;6209452;23;20016;-80
2023/07/09 08:36:09;;;;;;;5.78;4.25;;;;;;;;;;6208901;23;20395;-80
2023/07/09 08:38:35;;;;;;;7.47;5.53;;;;;;;;;;6208077;23;20346;-80
2023/07/09 08:41:01;;;;;;;6.00;4.53;;;;;;;;;;6207381;23;20377;-81
2023/07/09 08:43:27;;;;;;;7.03;5.05;;;;;;;;;;6207985;23;20122;-81
2023/07/09 08:46:03;;;;;;;7.57;5.18;;;;;;;;;;6209198;23;20102;-81
2023/07/09 08:48:40;;;;;;;5.22;4.72;;;;;;;;;;6206547;23;20008;-81
2023/07/09 08:51:11;;;;;;;5.53;4.78;;;;;;;;;;6208401;23;20015;-80
2023/07/09 08:53:40;;;;;;;7.22;4.95;;;;;;;;;;6208949;23;20087;-81
2023/07/09 08:56:09;;;;;;;5.72;4.50;;;;;;;;;;6207698;23;20016;-81
2023/07/09 08:58:35;;;;;;;7.78;5.60;;;;;;;;;;6205803;23;20092;-81
2023/07/09 09:01:06;;;;;;;6.05;4.75;;;;;;;;;;6205982;23;20016;-81
2023/07/09 09:04:01;;;;;;;5.55;4.97;;;;;;;;;;6183263;23;20020;-84
2023/07/09 09:06:28;;;;;;;6.72;4.28;;;;;;;;;;6187870;23;20115;-81
2023/07/09 09:09:04;;;;;;;6.80;4.82;;;;;;;;;;6207747;23;20027;-84
2023/07/09 09:11:36;;;;;;;6.88;5.47;;;;;;;;;;6208938;23;20083;-83
2023/07/09 09:14:04;;;;;;;6.35;5.22;;;;;;;;;;6209270;23;20020;-81
2023/07/09 09:16:38;;;;;;;5.75;4.47;;;;;;;;;;6208932;23;20016;-80
2023/07/09 09:19:09;;;;;;;7.30;4.40;;;;;;;;;;6208746;23;20016;-81
2023/07/09 09:21:36;;;;;;;9.38;5.47;;;;;;;;;;6209527;23;20098;-81
2023/07/09 09:24:13;;;;;;;6.93;5.45;;;;;;;;;;6207857;23;20067;-81
2023/07/09 09:26:42;;;;;;;6.93;5.40;;;;;;;;;;6206776;23;20040;-83
2023/07/09 09:29:13;;;;;;;7.35;5.20;;;;;;;;;;6207018;23;20048;-88
2023/07/09 09:31:39;;;;;;;6.93;5.15;;;;;;;;;;6209584;23;20019;-86
2023/07/09 09:34:05;;;;;;;5.15;4.65;;;;;;;;;;6209744;23;20016;-84
2023/07/09 09:36:31;;;;;;;7.28;4.93;;;;;;;;;;6209812;23;20020;-84
2023/07/09 09:39:02;;;;;;;6.25;4.63;;;;;;;;;;6204472;23;20023;-87
2023/07/09 09:41:33;;;;;;;5.03;4.50;;;;;;;;;;6208888;23;20040;-87
2023/07/09 09:43:59;;;;;;;5.60;4.47;;;;;;;;;;6207810;23;20025;-89
2023/07/09 09:46:29;;;;;;;6.68;5.32;;;;;;;;;;6209230;23;20079;-87
2023/07/09 09:48:56;;;;;;;5.72;5.20;;;;;;;;;;6208155;23;20016;-88
2023/07/09 09:51:23;;;;;;;4.10;3.70;;;;;;;;;;6207780;23;20381;-88
2023/07/09 09:53:50;;;;;;;5.75;4.60;;;;;;;;;;6181184;23;20048;-88
2023/07/09 09:56:21;;;;;;;9.43;5.10;;;;;;;;;;6207825;23;20040;-94
2023/07/09 09:58:47;;;;;;;5.88;4.45;;;;;;;;;;6181992;23;20023;-87
2023/07/09 10:01:18;;;;;;;7.53;4.57;;;;;;;;;;6182758;23;20023;-85
2023/07/09 10:03:44;;;;;;;5.13;4.63;;;;;;;;;;6208288;23;20021;-86
2023/07/09 10:06:20;;;;;;;5.20;4.32;;;;;;;;;;6209006;23;20425;-85
2023/07/09 10:08:49;;;;;;;8.95;4.53;;;;;;;;;;6209281;23;20809;-85
2023/07/09 10:11:29;;;;;;;8.02;5.20;;;;;;;;;;6207227;23;20008;-85
2023/07/09 10:13:56;;;;;;;5.05;4.30;;;;;;;;;;6185034;23;20028;-86
2023/07/09 10:16:22;;;;;;;5.97;4.28;;;;;;;;;;6185245;23;20407;-87
2023/07/09 10:18:49;;;;;;;5.80;4.18;;;;;;;;;;6209558;23;20021;-87
2023/07/09 10:21:17;;;;;;;5.00;4.22;;;;;;;;;;6209281;23;20506;-87
2023/07/09 10:23:46;;;;;;;6.22;4.82;;;;;;;;;;6183831;23;20024;-87
2023/07/09 10:26:21;;;;;;;5.72;4.20;;;;;;;;;;6209681;23;20009;-86
2023/07/09 10:29:06;;;;;;;5.18;4.57;;;;;;;;;;6209687;23;20012;-86
2023/07/09 10:31:42;;;;;;;8.23;4.40;;;;;;;;;;6210216;23;20055;-86
2023/07/09 10:34:08;;;;;;;5.03;4.40;;;;;;;;;;6211733;23;20071;-88
2023/07/09 10:36:43;;;;;;;5.53;4.38;;;;;;;;;;6210446;23;20381;-87
2023/07/09 10:39:16;;;;;;;6.18;4.40;;;;;;;;;;6209799;23;20016;-86
2023/07/09 10:41:43;;;;;;;5.13;4.22;;;;;;;;;;6210406;23;20021;-86
2023/07/09 10:44:15;;;;;;;6.60;4.50;;;;;;;;;;6210880;23;20384;-90
2023/07/09 10:46:43;;;;;;;5.75;4.80;;;;;;;;;;6209173;23;20024;-91
2023/07/09 10:49:12;;;;;;;5.18;4.05;;;;;;;;;;6186126;23;20315;-91
2023/07/09 10:51:44;;;;;;;6.22;4.35;;;;;;;;;;6186420;23;20024;-93
2023/07/09 10:54:13;;;;;;;5.28;4.72;;;;;;;;;;6216837;23;20028;-94
2023/07/09 10:56:40;;;;;;;6.07;4.63;;;;;;;;;;6222670;23;20017;-93
2023/07/09 10:59:21;;;;;;;6.45;4.90;;;;;;;;;;6196026;23;20016;-93
2023/07/09 11:01:52;;;;;;;6.13;4.80;;;;;;;;;;6219475;23;20055;-88
2023/07/09 11:04:33;;;;;;;4.65;4.20;;;;;;;;;;6215612;23;20013;-86
2023/07/09 11:07:01;;;;;;;4.90;4.30;;;;;;;;;;6224577;23;20017;-86
2023/07/09 11:09:35;;;;;;;5.40;4.30;;;;;;;;;;6224927;23;20059;-92
2023/07/09 11:12:14;;;;;;;5.63;4.55;;;;;;;;;;6218541;23;20012;-95
2023/07/09 11:14:43;;;;;;;4.93;3.67;;;;;;;;;;6216864;23;20114;-87
2023/07/09 11:17:14;;;;;;;4.85;4.00;;;;;;;;;;6208742;23;20021;-88
2023/07/09 11:19:46;;;;;;;4.18;3.78;;;;;;;;;;6186087;23;20482;-96
2023/07/09 11:22:37;;;;;;;5.80;3.88;;;;;;;;;;6217671;23;20027;-92
2023/07/09 11:25:11;;;;;;;6.22;3.28;;;;;;;;;;6215045;23;20024;-94
2023/07/09 11:27:49;;;;;;;4.68;4.05;;;;;;;;;;6181581;23;20012;-85
2023/07/09 11:30:23;;;;;;;5.47;3.58;;;;;;;;;;6206417;23;20489;-85
2023/07/09 11:32:59;;;;;;;4.78;3.50;;;;;;;;;;6207465;23;20465;-87
2023/07/09 11:35:27;;;;;;;4.55;3.55;;;;;;;;;;6209143;23;20013;-88
2023/07/09 11:37:53;;;;;;;5.97;3.78;;;;;;;;;;6207491;23;20020;-84
2023/07/09 11:40:20;;;;;;;5.28;3.50;;;;;;;;;;6181249;23;20439;-84
2023/07/09 11:42:57;;;;;;;7.18;4.03;;;;;;;;;;6206148;23;20020;-83
2023/07/09 11:45:32;;;;;;;7.50;3.85;;;;;;;;;;6206858;23;20376;-84
2023/07/09 11:48:03;;;;;;;;;;;;;;;;;;6206685;23;20612;-84
2023/07/09 11:50:31;;;;;;;4.47;3.47;;;;;;;;;;6206772;23;19912;-84
2023/07/09 11:53:00;;;;;;;4.50;3.25;;;;;;;;;;6209091;23;20437;-84
2023/07/09 11:55:43;;;;;;;4.53;3.53;;;;;;;;;;6205905;23;20017;-83
2023/07/09 11:58:11;;;;;;;4.40;3.70;;;;;;;;;;6208291;23;20051;-84
2023/07/09 12:00:39;;;;;;;8.65;4.10;;;;;;;;;;6207760;23;20016;-83
2023/07/09 12:03:05;;;;;;;5.93;3.30;;;;;;;;;;6205177;23;20088;-83
2023/07/09 12:05:31;;;;;;;8.77;3.88;;;;;;;;;;6208240;23;20350;-84
2023/07/09 12:07:58;;;;;;;5.97;3.80;;;;;;;;;;6205840;23;20072;-83
2023/07/09 12:10:27;;;;;;;7.10;3.95;;;;;;;;;;6206591;23;20077;-83
2023/07/09 12:12:57;;;;;;;4.75;3.65;;;;;;;;;;6207517;23;20028;-86
2023/07/09 12:15:25;;;;;;;5.95;3.65;;;;;;;;;;6211758;23;20027;-87
2023/07/09 12:18:02;;;;;;;5.07;3.47;;;;;;;;;;6202833;23;20075;-84
2023/07/09 12:20:32;;;;;;;4.38;3.90;;;;;;;;;;6207056;23;20047;-84
2023/07/09 12:22:58;;;;;;;6.60;3.88;;;;;;;;;;6206047;23;20024;-83
2023/07/09 12:25:27;;;;;;;5.30;4.10;;;;;;;;;;6206983;23;20013;-83
2023/07/09 12:27:53;;;;;;;4.50;3.80;;;;;;;;;;6206830;23;20020;-84
2023/07/09 12:30:19;;;;;;;6.32;4.30;;;;;;;;;;6207674;23;20046;-83
2023/07/09 12:32:50;;;;;;;6.32;4.22;;;;;;;;;;6205816;23;20099;-84
2023/07/09 12:35:17;;;;;;;5.40;3.75;;;;;;;;;;6206040;23;20070;-85
2023/07/09 12:37:44;;;;;;;5.68;4.30;;;;;;;;;;6206881;23;20017;-84
2023/07/09 12:40:36;;;;;;;3.90;3.50;;;;;;;;;;6180664;23;20008;-85
2023/07/09 12:43:03;;;;;;;5.95;4.55;;;;;;;;;;6202172;23;20069;-84
2023/07/09 12:45:30;;;;;;;4.78;3.83;;;;;;;;;;6206531;23;20088;-84
2023/07/09 12:47:56;;;;;;;5.20;4.00;;;;;;;;;;6206114;23;20016;-84
2023/07/09 12:50:33;;;;;;;10.48;4.45;;;;;;;;;;6206087;23;20028;-83
2023/07/09 12:53:14;;;;;;;5.70;3.95;;;;;;;;;;6205606;23;20017;-87
2023/07/09 12:55:41;;;;;;;5.35;4.22;;;;;;;;;;6206478;23;20013;-87
2023/07/09 12:58:20;;;;;;;4.63;4.20;;;;;;;;;;6206133;23;20055;-84
2023/07/09 13:00:51;;;;;;;5.32;4.30;;;;;;;;;;6206069;23;20008;-83
2023/07/09 13:03:19;;;;;;;5.18;4.20;;;;;;;;;;6204008;23;20091;-83
2023/07/09 13:05:56;;;;;;;4.90;3.88;;;;;;;;;;6180267;23;20013;-83
2023/07/09 13:08:22;;;;;;;5.07;4.55;;;;;;;;;;6205362;23;20040;-82
2023/07/09 13:10:51;;;;;;;4.45;3.63;;;;;;;;;;6207276;23;20012;-82
2023/07/09 13:13:17;;;;;;;4.75;3.83;;;;;;;;;;6208040;23;20017;-83
2023/07/09 13:15:45;;;;;;;7.50;4.35;;;;;;;;;;6205627;23;20103;-83
2023/07/09 13:18:12;;;;;;;4.97;4.07;;;;;;;;;;6206596;23;20024;-82
2023/07/09 13:20:41;;;;;;;3.70;3.30;;;;;;;;;;6205255;23;20012;-83
2023/07/09 13:23:12;;;;;;;4.90;3.85;;;;;;;;;;6203918;23;20025;-83
2023/07/09 13:25:41;;;;;;;7.30;3.75;;;;;;;;;;6207252;23;20023;-83
2023/07/09 13:28:17;;;;;;;4.90;4.00;;;;;;;;;;6207204;23;20315;-82
2023/07/09 13:30:44;;;;;;;3.97;3.40;;;;;;;;;;6207277;23;20015;-83
2023/07/09 13:33:11;;;;;;;7.30;4.00;;;;;;;;;;6204467;23;20044;-82
2023/07/09 13:35:37;;;;;;;4.78;3.97;;;;;;;;;;6205501;23;20013;-82
2023/07/09 13:38:05;;;;;;;7.60;3.40;;;;;;;;;;6207111;23;20179;-83
2023/07/09 13:40:31;;;;;;;5.63;3.22;;;;;;;;;;6206619;23;20408;-83
2023/07/09 13:42:57;;;;;;;4.63;3.58;;;;;;;;;;6205878;23;20009;-82
2023/07/09 13:45:25;;;;;;;4.82;3.85;;;;;;;;;;6205463;23;20016;-83
2023/07/09 13:47:51;;;;;;;4.13;3.22;;;;;;;;;;6207204;23;20017;-82
2023/07/09 13:50:23;;;;;;;5.22;4.18;;;;;;;;;;6207489;23;20008;-83
2023/07/09 13:52:49;;;;;;;4.43;3.65;;;;;;;;;;6206630;23;20414;-82
2023/07/09 13:55:20;;;;;;;4.00;3.45;;;;;;;;;;6205800;23;20369;-83
2023/07/09 13:57:47;;;;;;;3.15;2.85;;;;;;;;;;6207288;23;20385;-82
2023/07/09 14:00:13;;;;;;;4.00;3.55;;;;;;;;;;6207098;23;20008;-84
2023/07/09 14:02:39;;;;;;;4.95;3.58;;;;;;;;;;6205560;23;20012;-82
2023/07/09 14:05:06;;;;;;;4.70;4.07;;;;;;;;;;6206182;23;20087;-82
2023/07/09 14:07:37;;;;;;;4.03;3.38;;;;;;;;;;6206322;23;20060;-83
2023/07/09 14:10:04;;;;;;;5.63;3.83;;;;;;;;;;6205627;23;20058;-82
2023/07/09 14:12:31;;;;;;;5.60;3.53;;;;;;;;;;6205897;23;20040;-83
2023/07/09 14:14:59;;;;;;;6.03;4.20;;;;;;;;;;6179937;23;20027;-82
2023/07/09 14:17:25;;;;;;;5.20;4.07;;;;;;;;;;6205948;23;20066;-83
2023/07/09 14:19:52;;;;;;;5.45;3.65;;;;;;;;;;6205330;23;20016;-84
2023/07/09 14:22:31;;;;;;;5.30;3.85;;;;;;;;;;6206124;23;20431;-83
2023/07/09 14:24:58;;;;;;;6.63;3.90;;;;;;;;;;6208685;23;20020;-87
2023/07/09 14:27:24;;;;;;;4.65;4.03;;;;;;;;;;6217291;23;20016;-82
2023/07/09 14:29:50;;;;;;;5.30;4.20;;;;;;;;;;6208737;23;20084;-82
2023/07/09 14:32:35;;;;;;;6.95;4.05;;;;;;;;;;6208308;23;20393;-83
2023/07/09 14:35:02;;;;;;;5.63;3.70;;;;;;;;;;6205517;23;20028;-82
2023/07/09 14:37:28;;;;;;;5.25;4.10;;;;;;;;;;6206146;23;20024;-81
2023/07/09 14:39:54;;;;;;;7.25;4.10;;;;;;;;;;6204920;23;20051;-82
2023/07/09 14:42:22;;;;;;;6.78;4.03;;;;;;;;;;6209172;23;20016;-82
2023/07/09 14:44:48;;;;;;;5.10;3.85;;;;;;;;;;6208725;23;20023;-82
2023/07/09 14:47:19;;;;;;;5.65;3.95;;;;;;;;;;6208548;23;20352;-81
2023/07/09 14:49:45;;;;;;;4.70;3.30;;;;;;;;;;6206902;23;20024;-82